Time;durP1;ratioP1;P1;durP2;ratioP2;P2;SDS_P1;SDS_P2;PMS_P1;PMS_P2;Temp;Humidity;BMP_temperature;BMP_pressure;BME280_temperature;BME280_humidity;BME280_pressure;Samples;Min_cycle;Max_cycle;Signal;HPM_P1;HPM_P2
2021/10/04 00:01:55;;;;;;;;;;;22.70;52.30;;;;;;456791;260;2206;-72
2021/10/04 00:03:56;;;;;;;;;;;22.40;52.80;;;;;;456787;260;1307;-72
2021/10/04 00:05:57;;;;;;;;;;;22.80;52.30;;;;;;456802;260;1194;-72
2021/10/04 00:07:59;;;;;;;;;;;22.60;52.50;;;;;;456816;260;1123;-72
2021/10/04 00:10:00;;;;;;;;;;;22.80;52.20;;;;;;456828;260;981;-72
2021/10/04 00:12:01;;;;;;;;;;;22.90;51.70;;;;;;456768;259;1121;-72
2021/10/04 00:14:03;;;;;;;;;;;22.80;52.10;;;;;;456874;260;948;-72
2021/10/04 00:16:04;;;;;;;;;;;22.80;51.80;;;;;;456801;260;1130;-72
2021/10/04 00:18:05;;;;;;;;;;;23.00;51.60;;;;;;456817;260;1158;-72
2021/10/04 00:20:07;;;;;;;;;;;22.80;51.70;;;;;;456872;259;1170;-72
2021/10/04 00:22:08;;;;;;;;;;;22.90;51.50;;;;;;456699;259;2210;-72
2021/10/04 00:24:09;;;;;;;;;;;22.90;51.80;;;;;;457052;259;1000;-72
2021/10/04 00:26:11;;;;;;;;;;;22.80;51.90;;;;;;456743;260;1210;-72
2021/10/04 00:28:12;;;;;;;;;;;22.90;51.70;;;;;;456835;260;1164;-72
2021/10/04 00:30:13;;;;;;;;;;;23.00;51.30;;;;;;456812;260;974;-72
2021/10/04 00:32:15;;;;;;;;;;;22.90;51.80;;;;;;456785;259;1105;-72
2021/10/04 00:34:16;;;;;;;;;;;22.80;51.80;;;;;;456792;260;1124;-72
2021/10/04 00:36:17;;;;;;;;;;;22.90;51.60;;;;;;456762;258;1264;-72
2021/10/04 00:38:19;;;;;;;;;;;23.00;51.50;;;;;;456799;260;1194;-72
2021/10/04 00:40:20;;;;;;;;;;;23.10;51.30;;;;;;456731;260;1364;-72
2021/10/04 00:42:22;;;;;;;;;;;22.80;51.80;;;;;;456741;260;2226;-72
2021/10/04 00:44:24;;;;;;;;;;;22.90;51.60;;;;;;456816;260;994;-72
2021/10/04 00:46:25;;;;;;;;;;;23.10;50.80;;;;;;456552;261;1202;-72
2021/10/04 00:48:26;;;;;;;;;;;22.90;51.60;;;;;;456800;260;1129;-72
2021/10/04 00:50:28;;;;;;;;;;;23.00;51.30;;;;;;456755;260;1211;-72
2021/10/04 00:52:29;;;;;;;;;;;22.70;51.70;;;;;;456662;261;1123;-73
2021/10/04 00:54:30;;;;;;;;;;;22.80;51.80;;;;;;456813;260;1079;-72
2021/10/04 00:56:32;;;;;;;;;;;22.70;51.80;;;;;;456691;260;1221;-72
2021/10/04 00:58:33;;;;;;;;;;;23.00;51.30;;;;;;456831;260;1130;-72
2021/10/04 01:00:35;;;;;;;;;;;23.00;51.30;;;;;;456814;261;1050;-72
2021/10/04 01:02:36;;;;;;;;;;;23.20;50.60;;;;;;456821;259;2221;-72
2021/10/04 01:04:38;;;;;;;;;;;22.60;51.60;;;;;;456779;260;1206;-72
2021/10/04 01:06:39;;;;;;;;;;;22.20;53.00;;;;;;456707;261;1827;-72
2021/10/04 01:08:40;;;;;;;;;;;22.00;53.60;;;;;;456856;260;959;-72
2021/10/04 01:10:42;;;;;;;;;;;21.90;53.90;;;;;;456760;260;1097;-73
2021/10/04 01:12:43;;;;;;;;;;;21.70;54.30;;;;;;456741;260;1117;-72
2021/10/04 01:14:44;;;;;;;;;;;21.70;54.50;;;;;;456772;260;1061;-72
2021/10/04 01:16:45;;;;;;;;;;;21.60;54.60;;;;;;456740;260;1085;-72
2021/10/04 01:18:47;;;;;;;;;;;21.60;54.80;;;;;;456820;260;1081;-72
2021/10/04 01:20:48;;;;;;;;;;;21.50;55.00;;;;;;456801;260;1151;-72
2021/10/04 01:22:49;;;;;;;;;;;21.40;55.10;;;;;;456800;260;2203;-72
2021/10/04 01:24:51;;;;;;;;;;;21.40;55.30;;;;;;456840;260;1220;-72
2021/10/04 01:26:52;;;;;;;;;;;21.40;55.40;;;;;;456764;259;1145;-72
2021/10/04 01:28:54;;;;;;;;;;;21.40;55.50;;;;;;456675;261;966;-72
2021/10/04 01:30:55;;;;;;;;;;;21.30;55.50;;;;;;456748;260;977;-72
2021/10/04 01:32:56;;;;;;;;;;;21.30;55.50;;;;;;456862;260;1063;-72
2021/10/04 01:34:57;;;;;;;;;;;21.30;55.50;;;;;;456780;260;1335;-72
2021/10/04 01:36:59;;;;;;;;;;;21.30;55.60;;;;;;456800;260;1334;-72
2021/10/04 01:39:00;;;;;;;;;;;21.30;55.70;;;;;;456840;260;1227;-72
2021/10/04 01:41:01;;;;;;;;;;;21.30;55.80;;;;;;456710;260;1040;-72
2021/10/04 01:43:03;;;;;;;;;;;21.30;55.80;;;;;;456768;259;2210;-72
2021/10/04 01:45:04;;;;;;;;;;;21.20;55.80;;;;;;456744;261;931;-72
2021/10/04 01:47:06;;;;;;;;;;;21.20;55.80;;;;;;456731;260;1139;-72
2021/10/04 01:49:07;;;;;;;;;;;21.20;55.90;;;;;;456824;260;953;-72
2021/10/04 01:51:09;;;;;;;;;;;21.30;55.90;;;;;;456755;257;1319;-72
2021/10/04 01:53:10;;;;;;;;;;;21.10;55.90;;;;;;456780;260;1115;-72
2021/10/04 01:55:11;;;;;;;;;;;21.20;56.00;;;;;;456744;260;1028;-72
2021/10/04 01:57:13;;;;;;;;;;;21.20;56.00;;;;;;456720;260;1151;-72
2021/10/04 01:59:14;;;;;;;;;;;21.20;56.00;;;;;;456864;260;1111;-72
2021/10/04 02:01:15;;;;;;;;;;;21.20;55.90;;;;;;456822;259;1245;-72
2021/10/04 02:03:17;;;;;;;;;;;21.20;56.00;;;;;;456791;260;2214;-72
2021/10/04 02:05:20;;;;;;;;;;;21.20;55.90;;;;;;456771;260;1414;-72
2021/10/04 02:07:20;;;;;;;;;;;21.20;55.90;;;;;;456740;260;1256;-72
2021/10/04 02:09:21;;;;;;;;;;;21.20;55.90;;;;;;456829;260;969;-72
2021/10/04 02:11:22;;;;;;;;;;;21.20;56.00;;;;;;456702;260;1205;-72
2021/10/04 02:13:24;;;;;;;;;;;21.20;56.00;;;;;;456763;260;1195;-72
2021/10/04 02:15:25;;;;;;;;;;;21.20;55.90;;;;;;456732;260;1151;-72
2021/10/04 02:17:27;;;;;;;;;;;21.20;56.00;;;;;;456747;261;1177;-72
2021/10/04 02:19:28;;;;;;;;;;;21.20;56.00;;;;;;456836;261;1086;-72
2021/10/04 02:21:29;;;;;;;;;;;21.20;56.10;;;;;;456748;260;1272;-72
2021/10/04 02:23:31;;;;;;;;;;;21.20;56.00;;;;;;456791;260;2195;-72
2021/10/04 02:25:32;;;;;;;;;;;21.20;56.10;;;;;;456714;259;1259;-72
2021/10/04 02:27:33;;;;;;;;;;;21.10;56.10;;;;;;456755;259;1101;-72
2021/10/04 02:29:35;;;;;;;;;;;21.10;56.10;;;;;;456851;261;1122;-72
2021/10/04 02:31:36;;;;;;;;;;;21.20;56.10;;;;;;456794;260;1210;-72
2021/10/04 02:33:37;;;;;;;;;;;21.20;56.10;;;;;;456798;260;1077;-72
2021/10/04 02:35:39;;;;;;;;;;;21.10;56.10;;;;;;456748;260;1302;-72
2021/10/04 02:37:40;;;;;;;;;;;21.10;56.10;;;;;;456744;260;970;-72
2021/10/04 02:39:41;;;;;;;;;;;21.10;56.10;;;;;;456801;261;1007;-72
2021/10/04 02:41:43;;;;;;;;;;;21.10;56.10;;;;;;456726;260;1362;-72
2021/10/04 02:43:44;;;;;;;;;;;21.20;56.00;;;;;;456812;260;2135;-72
2021/10/04 02:45:45;;;;;;;;;;;21.10;56.00;;;;;;456724;261;968;-72
2021/10/04 02:47:47;;;;;;;;;;;21.20;56.10;;;;;;456787;258;1114;-72
2021/10/04 02:49:48;;;;;;;;;;;21.10;56.00;;;;;;456816;260;953;-72
2021/10/04 02:51:49;;;;;;;;;;;21.10;56.10;;;;;;456711;260;1222;-72
2021/10/04 02:53:51;;;;;;;;;;;21.10;56.10;;;;;;456852;260;1117;-72
2021/10/04 02:55:52;;;;;;;;;;;21.10;56.10;;;;;;456783;260;996;-72
2021/10/04 02:57:53;;;;;;;;;;;21.10;56.10;;;;;;456825;260;1133;-72
2021/10/04 02:59:54;;;;;;;;;;;21.10;56.00;;;;;;456852;260;1085;-72
2021/10/04 03:01:56;;;;;;;;;;;21.10;56.10;;;;;;456757;260;2202;-72
2021/10/04 03:03:57;;;;;;;;;;;21.10;56.00;;;;;;456822;261;1106;-73
2021/10/04 03:05:58;;;;;;;;;;;21.10;55.90;;;;;;456743;260;1128;-72
2021/10/04 03:08:00;;;;;;;;;;;21.10;56.00;;;;;;456796;260;1096;-72
2021/10/04 03:10:01;;;;;;;;;;;21.10;55.90;;;;;;456833;260;978;-72
2021/10/04 03:12:02;;;;;;;;;;;21.10;55.90;;;;;;456734;260;1247;-72
2021/10/04 03:14:04;;;;;;;;;;;21.10;55.80;;;;;;456916;260;1166;-72
2021/10/04 03:16:05;;;;;;;;;;;21.10;55.90;;;;;;456812;260;1582;-72
2021/10/04 03:18:07;;;;;;;;;;;21.10;55.80;;;;;;456778;260;1228;-72
2021/10/04 03:20:09;;;;;;;;;;;21.10;55.80;;;;;;456774;260;960;-72
2021/10/04 03:22:09;;;;;;;;;;;21.10;55.80;;;;;;456579;260;2215;-72
2021/10/04 03:24:13;;;;;;;;;;;21.10;55.70;;;;;;456808;260;1051;-72
2021/10/04 03:26:12;;;;;;;;;;;21.10;55.80;;;;;;456790;260;1291;-72
2021/10/04 03:28:14;;;;;;;;;;;21.00;55.70;;;;;;456857;260;1180;-72
2021/10/04 03:30:15;;;;;;;;;;;21.00;55.70;;;;;;456858;260;1228;-72
2021/10/04 03:32:16;;;;;;;;;;;21.10;55.70;;;;;;456824;260;1078;-72
2021/10/04 03:34:17;;;;;;;;;;;21.10;55.70;;;;;;456800;260;1164;-72
2021/10/04 03:36:19;;;;;;;;;;;21.00;55.70;;;;;;456676;261;1240;-72
2021/10/04 03:38:20;;;;;;;;;;;21.10;55.60;;;;;;456772;260;1138;-72
2021/10/04 03:40:21;;;;;;;;;;;21.00;55.50;;;;;;456813;261;1386;-72
2021/10/04 03:42:23;;;;;;;;;;;21.10;55.50;;;;;;456713;260;2205;-72
2021/10/04 03:44:24;;;;;;;;;;;21.00;55.60;;;;;;456749;260;1096;-72
2021/10/04 03:46:26;;;;;;;;;;;21.00;55.50;;;;;;456763;260;1106;-72
2021/10/04 03:48:27;;;;;;;;;;;21.10;55.50;;;;;;456821;259;971;-72
2021/10/04 03:50:28;;;;;;;;;;;21.00;55.50;;;;;;456783;260;964;-72
2021/10/04 03:52:29;;;;;;;;;;;21.00;55.40;;;;;;456824;260;1307;-72
2021/10/04 03:54:31;;;;;;;;;;;21.10;55.40;;;;;;456773;260;947;-72
2021/10/04 03:56:32;;;;;;;;;;;21.00;55.40;;;;;;456718;260;1247;-72
2021/10/04 03:58:33;;;;;;;;;;;21.00;55.30;;;;;;456754;260;1121;-72
2021/10/04 04:00:35;;;;;;;;;;;21.00;55.30;;;;;;456785;260;975;-72
2021/10/04 04:02:36;;;;;;;;;;;21.10;55.20;;;;;;456776;260;2143;-72
2021/10/04 04:04:38;;;;;;;;;;;21.10;55.10;;;;;;456713;260;984;-72
2021/10/04 04:06:40;;;;;;;;;;;21.10;55.10;;;;;;456604;260;1183;-72
2021/10/04 04:08:40;;;;;;;;;;;21.00;55.00;;;;;;456723;260;1404;-72
2021/10/04 04:10:41;;;;;;;;;;;21.10;54.80;;;;;;456757;260;1145;-72
2021/10/04 04:12:43;;;;;;;;;;;21.30;54.50;;;;;;456724;259;1168;-72
2021/10/04 04:14:44;;;;;;;;;;;22.20;52.50;;;;;;456451;261;973;-72
2021/10/04 04:16:46;;;;;;;;;;;22.80;51.00;;;;;;456668;258;1230;-72
2021/10/04 04:18:47;;;;;;;;;;;22.70;50.30;;;;;;456745;260;1108;-72
2021/10/04 04:20:48;;;;;;;;;;;23.00;49.70;;;;;;456599;261;1037;-72
2021/10/04 04:22:50;;;;;;;;;;;23.50;48.90;;;;;;456683;260;2210;-72
2021/10/04 04:24:51;;;;;;;;;;;23.70;48.30;;;;;;456716;261;1068;-72
2021/10/04 04:26:53;;;;;;;;;;;23.80;47.70;;;;;;456633;260;1341;-72
2021/10/04 04:28:54;;;;;;;;;;;23.70;47.70;;;;;;456686;260;1356;-72
2021/10/04 04:30:55;;;;;;;;;;;24.00;47.40;;;;;;456600;260;1069;-72
2021/10/04 04:32:56;;;;;;;;;;;24.00;47.10;;;;;;456634;260;1238;-72
2021/10/04 04:34:58;;;;;;;;;;;24.00;47.00;;;;;;456569;260;1117;-72
2021/10/04 04:36:59;;;;;;;;;;;24.10;47.00;;;;;;456550;260;1243;-71
2021/10/04 04:39:00;;;;;;;;;;;24.10;46.90;;;;;;456498;260;1230;-72
2021/10/04 04:41:02;;;;;;;;;;;23.80;47.20;;;;;;456410;261;1134;-72
2021/10/04 04:43:03;;;;;;;;;;;24.00;46.70;;;;;;456527;260;2147;-72
2021/10/04 04:45:05;;;;;;;;;;;24.20;46.50;;;;;;456573;260;980;-72
2021/10/04 04:47:06;;;;;;;;;;;24.30;46.20;;;;;;456529;260;977;-72
2021/10/04 04:49:07;;;;;;;;;;;24.10;46.60;;;;;;456534;260;1008;-72
2021/10/04 04:51:08;;;;;;;;;;;24.40;46.10;;;;;;456483;261;1271;-72
2021/10/04 04:53:10;;;;;;;;;;;24.30;46.50;;;;;;456496;260;1345;-72
2021/10/04 04:55:11;;;;;;;;;;;23.90;46.90;;;;;;456440;260;1005;-72
2021/10/04 04:57:12;;;;;;;;;;;24.30;46.10;;;;;;456435;260;1114;-72
2021/10/04 04:59:15;;;;;;;;;;;24.00;46.90;;;;;;456469;260;1005;-72
2021/10/04 05:01:15;;;;;;;;;;;24.10;46.60;;;;;;456416;260;1431;-72
2021/10/04 05:03:18;;;;;;;;;;;24.40;45.80;;;;;;456484;260;2135;-72
2021/10/04 05:05:18;;;;;;;;;;;24.30;46.10;;;;;;456275;261;1275;-72
2021/10/04 05:07:19;;;;;;;;;;;24.40;45.70;;;;;;456284;259;1260;-72
2021/10/04 05:09:20;;;;;;;;;;;24.40;45.90;;;;;;456471;260;1569;-72
2021/10/04 05:11:22;;;;;;;;;;;24.50;45.50;;;;;;456328;260;1117;-72
2021/10/04 05:13:23;;;;;;;;;;;24.10;45.80;;;;;;456379;260;1077;-72
2021/10/04 05:15:24;;;;;;;;;;;24.10;45.80;;;;;;456447;260;1040;-72
2021/10/04 05:17:26;;;;;;;;;;;24.40;46.00;;;;;;456371;260;1258;-72
2021/10/04 05:19:27;;;;;;;;;;;24.00;46.00;;;;;;456410;260;1045;-72
2021/10/04 05:21:28;;;;;;;;;;;24.00;45.90;;;;;;456305;254;1094;-72
2021/10/04 05:23:30;;;;;;;;;;;24.30;46.10;;;;;;456274;260;2152;-72
2021/10/04 05:25:32;;;;;;;;;;;24.40;45.50;;;;;;456283;260;1069;-72
2021/10/04 05:27:33;;;;;;;;;;;24.50;45.30;;;;;;456250;261;1173;-72
2021/10/04 05:29:34;;;;;;;;;;;24.60;45.10;;;;;;456451;260;1019;-72
2021/10/04 05:31:35;;;;;;;;;;;24.50;45.40;;;;;;456370;258;1223;-72
2021/10/04 05:33:37;;;;;;;;;;;24.30;45.90;;;;;;456313;260;1106;-72
2021/10/04 05:35:38;;;;;;;;;;;24.30;45.60;;;;;;456266;260;1076;-72
2021/10/04 05:37:40;;;;;;;;;;;24.40;45.90;;;;;;456221;260;1086;-72
2021/10/04 05:39:41;;;;;;;;;;;24.10;46.20;;;;;;456261;261;1224;-72
2021/10/04 05:41:42;;;;;;;;;;;24.40;45.50;;;;;;456176;260;1338;-72
2021/10/04 05:43:43;;;;;;;;;;;24.10;45.70;;;;;;456310;260;2275;-72
2021/10/04 05:45:45;;;;;;;;;;;24.50;45.30;;;;;;456281;260;1083;-72
2021/10/04 05:47:46;;;;;;;;;;;24.10;45.90;;;;;;456254;260;1158;-71
2021/10/04 05:49:47;;;;;;;;;;;24.30;45.70;;;;;;456422;260;970;-73
2021/10/04 05:51:49;;;;;;;;;;;24.50;45.50;;;;;;456385;260;1253;-72
2021/10/04 05:53:50;;;;;;;;;;;24.50;45.20;;;;;;456396;260;1154;-72
2021/10/04 05:55:52;;;;;;;;;;;24.40;45.40;;;;;;456299;260;1098;-72
2021/10/04 05:57:53;;;;;;;;;;;24.60;45.00;;;;;;456285;261;1037;-72
2021/10/04 05:59:55;;;;;;;;;;;24.30;45.20;;;;;;456349;260;1032;-72
2021/10/04 06:01:56;;;;;;;;;;;24.30;45.30;;;;;;456206;260;1412;-72
2021/10/04 06:03:57;;;;;;;;;;;24.50;45.40;;;;;;456280;260;2245;-72
2021/10/04 06:05:58;;;;;;;;;;;23.90;45.80;;;;;;456260;260;1049;-72
2021/10/04 06:08:00;;;;;;;;;;;24.40;45.60;;;;;;456270;260;1104;-72
2021/10/04 06:10:01;;;;;;;;;;;24.60;45.20;;;;;;456405;260;1171;-72
2021/10/04 06:12:02;;;;;;;;;;;24.70;44.80;;;;;;456284;260;1208;-72
2021/10/04 06:14:05;;;;;;;;;;;24.60;45.00;;;;;;456226;260;990;-72
2021/10/04 06:16:05;;;;;;;;;;;24.60;44.80;;;;;;456074;260;1471;-72
2021/10/04 06:18:08;;;;;;;;;;;24.50;45.60;;;;;;456159;259;1267;-72
2021/10/04 06:20:08;;;;;;;;;;;24.30;45.60;;;;;;456242;260;1448;-72
2021/10/04 06:22:09;;;;;;;;;;;24.50;45.10;;;;;;456204;261;1300;-72
2021/10/04 06:24:10;;;;;;;;;;;24.40;45.70;;;;;;456205;260;2146;-72
2021/10/04 06:26:12;;;;;;;;;;;24.10;46.20;;;;;;456076;261;1245;-72
2021/10/04 06:28:13;;;;;;;;;;;24.50;45.30;;;;;;456178;260;1089;-72
2021/10/04 06:30:14;;;;;;;;;;;24.20;45.70;;;;;;456024;260;1094;-72
2021/10/04 06:32:15;;;;;;;;;;;24.50;45.10;;;;;;455934;260;1271;-72
2021/10/04 06:34:17;;;;;;;;;;;24.60;45.30;;;;;;456090;260;977;-72
2021/10/04 06:36:18;;;;;;;;;;;24.70;44.90;;;;;;455700;260;1157;-72
2021/10/04 06:38:19;;;;;;;;;;;24.00;45.50;;;;;;456017;260;1066;-72
2021/10/04 06:40:21;;;;;;;;;;;24.70;45.30;;;;;;456132;260;1138;-72
2021/10/04 06:42:24;;;;;;;;;;;24.00;45.90;;;;;;456069;260;1375;-72
2021/10/04 06:44:23;;;;;;;;;;;24.60;45.30;;;;;;455918;260;2202;-72
2021/10/04 06:46:25;;;;;;;;;;;24.50;45.50;;;;;;455957;260;1190;-72
2021/10/04 06:48:26;;;;;;;;;;;24.40;45.80;;;;;;455920;260;1127;-72
2021/10/04 06:50:27;;;;;;;;;;;24.70;45.10;;;;;;455747;259;1249;-72
2021/10/04 06:52:29;;;;;;;;;;;24.60;45.30;;;;;;455771;260;1197;-72
2021/10/04 06:54:30;;;;;;;;;;;24.80;44.90;;;;;;455852;260;1126;-72
2021/10/04 06:56:31;;;;;;;;;;;24.50;45.30;;;;;;455726;260;1157;-72
2021/10/04 06:58:33;;;;;;;;;;;24.40;45.20;;;;;;455849;260;1372;-72
2021/10/04 07:00:34;;;;;;;;;;;24.50;45.60;;;;;;455797;261;1311;-72
2021/10/04 07:02:35;;;;;;;;;;;24.40;45.80;;;;;;455836;260;1121;-72
2021/10/04 07:04:37;;;;;;;;;;;24.30;45.80;;;;;;455815;260;2135;-72
2021/10/04 07:06:38;;;;;;;;;;;24.60;45.20;;;;;;455836;261;1214;-72
2021/10/04 07:08:39;;;;;;;;;;;24.80;44.80;;;;;;455973;260;1029;-72
2021/10/04 07:10:41;;;;;;;;;;;24.60;45.10;;;;;;455935;260;1146;-73
2021/10/04 07:12:42;;;;;;;;;;;24.50;45.20;;;;;;455922;261;1042;-72
2021/10/04 07:14:43;;;;;;;;;;;24.80;44.90;;;;;;455773;260;1055;-72
2021/10/04 07:16:44;;;;;;;;;;;24.80;44.70;;;;;;455772;257;1157;-72
2021/10/04 07:18:46;;;;;;;;;;;24.50;45.60;;;;;;455882;260;1240;-72
2021/10/04 07:20:47;;;;;;;;;;;24.00;45.80;;;;;;455942;260;1083;-72
2021/10/04 07:22:48;;;;;;;;;;;24.50;45.60;;;;;;455864;260;1163;-72
2021/10/04 07:24:50;;;;;;;;;;;24.30;45.80;;;;;;455583;260;2199;-72
2021/10/04 07:26:51;;;;;;;;;;;24.10;46.10;;;;;;455151;257;1208;-72
2021/10/04 07:28:52;;;;;;;;;;;24.60;45.40;;;;;;455817;260;994;-72
2021/10/04 07:30:55;;;;;;;;;;;24.50;45.30;;;;;;455593;260;1108;-72
2021/10/04 07:32:56;;;;;;;;;;;24.70;45.20;;;;;;455689;260;1364;-72
2021/10/04 07:34:57;;;;;;;;;;;24.10;45.60;;;;;;455696;260;1077;-72
2021/10/04 07:36:58;;;;;;;;;;;24.20;45.80;;;;;;455536;260;1214;-72
2021/10/04 07:39:00;;;;;;;;;;;24.50;45.80;;;;;;455595;260;1062;-72
2021/10/04 07:41:01;;;;;;;;;;;24.30;45.90;;;;;;455650;259;1497;-72
2021/10/04 07:43:03;;;;;;;;;;;24.00;46.10;;;;;;455839;260;1314;-72
2021/10/04 07:45:04;;;;;;;;;;;24.40;45.90;;;;;;455604;261;2487;-72
2021/10/04 07:47:05;;;;;;;;;;;24.60;45.40;;;;;;455864;260;1123;-72
2021/10/04 07:49:07;;;;;;;;;;;24.60;45.20;;;;;;456240;259;866;-72
2021/10/04 07:51:11;;;;;;;;;;;24.30;45.60;;;;;;456010;258;1139;-72
2021/10/04 07:53:09;;;;;;;;;;;24.70;45.10;;;;;;455969;260;1291;-72
2021/10/04 07:55:11;;;;;;;;;;;24.70;45.10;;;;;;455981;260;1547;-73
2021/10/04 07:57:13;;;;;;;;;;;24.50;45.40;;;;;;455787;260;1203;-72
2021/10/04 07:59:14;;;;;;;;;;;24.30;46.00;;;;;;455734;260;1092;-72
2021/10/04 08:01:16;;;;;;;;;;;24.60;45.30;;;;;;455633;259;1202;-72
2021/10/04 08:03:17;;;;;;;;;;;24.70;45.30;;;;;;455761;260;1129;-72
2021/10/04 08:05:18;;;;;;;;;;;24.30;46.00;;;;;;455549;259;2218;-72
2021/10/04 08:07:20;;;;;;;;;;;24.70;45.30;;;;;;455544;260;1383;-72
2021/10/04 08:09:21;;;;;;;;;;;24.70;45.20;;;;;;455842;260;1147;-72
2021/10/04 08:11:22;;;;;;;;;;;24.70;45.20;;;;;;455836;260;1312;-72
2021/10/04 08:13:23;;;;;;;;;;;24.50;45.70;;;;;;455755;260;1162;-73
2021/10/04 08:15:25;;;;;;;;;;;24.00;46.20;;;;;;455090;260;1010;-72
2021/10/04 08:17:26;;;;;;;;;;;24.60;45.40;;;;;;455733;260;1121;-72
2021/10/04 08:19:28;;;;;;;;;;;24.30;46.20;;;;;;455824;261;1373;-72
2021/10/04 08:21:31;;;;;;;;;;;24.40;46.10;;;;;;455686;261;1416;-72
2021/10/04 08:23:32;;;;;;;;;;;24.70;45.20;;;;;;455711;261;1501;-72
2021/10/04 08:25:33;;;;;;;;;;;24.40;45.50;;;;;;455519;261;2186;-72
2021/10/04 08:27:34;;;;;;;;;;;24.50;45.70;;;;;;455588;260;1142;-72
2021/10/04 08:29:35;;;;;;;;;;;24.40;45.60;;;;;;455817;260;1141;-72
2021/10/04 08:31:37;;;;;;;;;;;24.30;45.90;;;;;;455796;260;1169;-73
2021/10/04 08:33:38;;;;;;;;;;;24.40;45.80;;;;;;456068;260;1374;-72
2021/10/04 08:35:39;;;;;;;;;;;24.70;45.20;;;;;;455818;260;1149;-72
2021/10/04 08:37:41;;;;;;;;;;;24.40;45.80;;;;;;455817;260;1331;-72
2021/10/04 08:39:42;;;;;;;;;;;24.80;45.10;;;;;;455693;261;1203;-72
2021/10/04 08:41:44;;;;;;;;;;;24.60;45.20;;;;;;455733;261;1215;-72
2021/10/04 08:43:45;;;;;;;;;;;24.40;45.90;;;;;;456220;260;2222;-72
2021/10/04 08:45:46;;;;;;;;;;;24.40;46.20;;;;;;455680;261;1151;-72
2021/10/04 08:47:48;;;;;;;;;;;24.30;45.60;;;;;;455746;260;1102;-72
2021/10/04 08:49:49;;;;;;;;;;;24.50;45.50;;;;;;455526;260;1061;-72
2021/10/04 08:51:50;;;;;;;;;;;24.70;45.30;;;;;;455488;260;1191;-72
2021/10/04 08:53:52;;;;;;;;;;;24.70;45.20;;;;;;455859;260;1079;-72
2021/10/04 08:55:53;;;;;;;;;;;24.60;45.30;;;;;;455669;259;1366;-72
2021/10/04 08:57:54;;;;;;;;;;;24.90;44.90;;;;;;455874;260;1199;-72
2021/10/04 08:59:56;;;;;;;;;;;24.60;45.50;;;;;;455844;260;1084;-72
2021/10/04 09:01:57;;;;;;;;;;;24.50;45.40;;;;;;455847;260;1227;-72
2021/10/04 09:03:58;;;;;;;;;;;24.80;44.90;;;;;;455865;260;2210;-72
2021/10/04 09:05:59;;;;;;;;;;;24.60;45.40;;;;;;455786;260;1217;-72
2021/10/04 09:08:05;;;;;;;;;;;24.30;45.90;;;;;;456180;260;1297;-72
2021/10/04 09:10:03;;;;;;;;;;;24.70;45.30;;;;;;455733;260;1356;-72
2021/10/04 09:12:04;;;;;;;;;;;24.90;44.80;;;;;;455867;260;1303;-72
2021/10/04 09:14:05;;;;;;;;;;;24.50;44.90;;;;;;455836;260;1119;-72
2021/10/04 09:16:07;;;;;;;;;;;24.70;45.30;;;;;;455747;253;1217;-72
2021/10/04 09:18:08;;;;;;;;;;;24.90;44.90;;;;;;456220;260;1095;-72
2021/10/04 09:20:10;;;;;;;;;;;24.90;44.70;;;;;;455775;260;1052;-72
2021/10/04 09:22:11;;;;;;;;;;;24.50;44.90;;;;;;455785;260;1196;-72
2021/10/04 09:24:12;;;;;;;;;;;24.90;44.90;;;;;;455828;260;2215;-72
2021/10/04 09:26:14;;;;;;;;;;;24.80;44.80;;;;;;455731;260;1138;-72
2021/10/04 09:28:15;;;;;;;;;;;24.70;44.70;;;;;;455786;260;1180;-72
2021/10/04 09:30:16;;;;;;;;;;;24.70;45.00;;;;;;455108;261;1338;-72
2021/10/04 09:32:18;;;;;;;;;;;24.60;45.30;;;;;;456087;260;1201;-72
2021/10/04 09:34:19;;;;;;;;;;;24.80;44.80;;;;;;455935;260;1096;-72
2021/10/04 09:36:20;;;;;;;;;;;24.70;45.00;;;;;;455801;259;1427;-72
2021/10/04 09:38:23;;;;;;;;;;;24.80;44.80;;;;;;455865;260;1181;-72
2021/10/04 09:40:23;;;;;;;;;;;24.80;45.10;;;;;;455781;260;1534;-72
2021/10/04 09:42:25;;;;;;;;;;;24.60;45.20;;;;;;455824;260;1199;-72
2021/10/04 09:44:25;;;;;;;;;;;24.80;44.80;;;;;;455776;260;2214;-72
2021/10/04 09:46:27;;;;;;;;;;;24.70;45.00;;;;;;455689;260;1234;-72
2021/10/04 09:48:28;;;;;;;;;;;24.50;45.30;;;;;;455793;260;1118;-72
2021/10/04 09:50:29;;;;;;;;;;;24.80;44.80;;;;;;455692;260;1083;-72
2021/10/04 09:52:31;;;;;;;;;;;24.80;44.70;;;;;;455856;260;1210;-72
2021/10/04 09:54:32;;;;;;;;;;;24.90;44.70;;;;;;455682;260;1066;-73
2021/10/04 09:56:33;;;;;;;;;;;24.90;44.60;;;;;;455586;259;1257;-72
2021/10/04 09:58:35;;;;;;;;;;;24.80;44.70;;;;;;455946;260;1316;-72
2021/10/04 10:00:36;;;;;;;;;;;24.60;45.00;;;;;;455773;260;1099;-72
2021/10/04 10:02:37;;;;;;;;;;;24.30;46.00;;;;;;455969;260;1262;-72
2021/10/04 10:04:39;;;;;;;;;;;23.80;46.70;;;;;;455700;260;2190;-72
2021/10/04 10:06:40;;;;;;;;;;;24.50;45.40;;;;;;455673;260;1549;-72
2021/10/04 10:08:41;;;;;;;;;;;24.50;45.40;;;;;;455796;260;1119;-72
2021/10/04 10:10:43;;;;;;;;;;;24.30;45.80;;;;;;455632;259;1223;-72
2021/10/04 10:12:44;;;;;;;;;;;24.60;45.20;;;;;;455605;260;1131;-72
2021/10/04 10:14:46;;;;;;;;;;;24.80;44.90;;;;;;455777;260;1054;-72
2021/10/04 10:16:50;;;;;;;;;;;24.60;45.10;;;;;;455720;261;1330;-72
2021/10/04 10:18:48;;;;;;;;;;;24.30;45.50;;;;;;455870;260;1431;-72
2021/10/04 10:20:50;;;;;;;;;;;24.10;45.50;;;;;;455653;260;1184;-72
2021/10/04 10:22:51;;;;;;;;;;;24.40;45.60;;;;;;455767;260;1412;-72
2021/10/04 10:24:52;;;;;;;;;;;24.30;45.70;;;;;;455744;261;2224;-72
2021/10/04 10:26:54;;;;;;;;;;;24.10;45.50;;;;;;455607;260;1344;-72
2021/10/04 10:28:55;;;;;;;;;;;24.70;45.10;;;;;;455830;260;1172;-72
2021/10/04 10:30:56;;;;;;;;;;;24.50;45.20;;;;;;455774;260;1357;-72
2021/10/04 10:32:58;;;;;;;;;;;24.50;45.10;;;;;;456019;260;1052;-72
2021/10/04 10:34:59;;;;;;;;;;;24.50;44.90;;;;;;455791;260;1074;-72
2021/10/04 10:37:00;;;;;;;;;;;24.50;45.40;;;;;;455912;260;1194;-72
2021/10/04 10:39:02;;;;;;;;;;;24.70;44.90;;;;;;456303;260;827;-72
2021/10/04 10:41:03;;;;;;;;;;;24.40;45.60;;;;;;455723;260;1394;-72
2021/10/04 10:43:05;;;;;;;;;;;24.10;45.50;;;;;;455827;260;1079;-72
2021/10/04 10:45:07;;;;;;;;;;;24.60;45.30;;;;;;455741;261;2203;-72
2021/10/04 10:47:07;;;;;;;;;;;24.10;45.70;;;;;;455675;260;1276;-72
2021/10/04 10:49:08;;;;;;;;;;;24.30;45.30;;;;;;456017;261;868;-72
2021/10/04 10:51:10;;;;;;;;;;;24.60;45.10;;;;;;455996;259;1597;-72
2021/10/04 10:53:12;;;;;;;;;;;24.60;45.00;;;;;;455941;260;1057;-72
2021/10/04 10:55:13;;;;;;;;;;;24.40;45.30;;;;;;455647;260;1444;-72
2021/10/04 10:57:14;;;;;;;;;;;24.40;45.00;;;;;;455693;260;1127;-72
2021/10/04 10:59:15;;;;;;;;;;;24.50;45.40;;;;;;455744;260;1234;-72
2021/10/04 11:01:17;;;;;;;;;;;24.50;45.50;;;;;;455640;259;1246;-72
2021/10/04 11:03:18;;;;;;;;;;;24.50;45.20;;;;;;455777;260;1154;-72
2021/10/04 11:05:19;;;;;;;;;;;24.60;45.20;;;;;;455627;260;2201;-72
2021/10/04 11:07:21;;;;;;;;;;;24.40;45.70;;;;;;455657;260;1267;-72
2021/10/04 11:09:22;;;;;;;;;;;24.60;45.20;;;;;;455500;260;1357;-72
2021/10/04 11:11:23;;;;;;;;;;;24.00;45.70;;;;;;455377;260;1277;-72
2021/10/04 11:13:25;;;;;;;;;;;24.40;45.70;;;;;;455715;260;1182;-72
2021/10/04 11:15:26;;;;;;;;;;;23.90;46.30;;;;;;455864;260;1145;-72
2021/10/04 11:17:28;;;;;;;;;;;24.10;46.20;;;;;;455635;261;1305;-72
2021/10/04 11:19:30;;;;;;;;;;;24.40;46.00;;;;;;455793;260;1202;-72
2021/10/04 11:21:30;;;;;;;;;;;24.60;45.00;;;;;;456006;259;1428;-72
2021/10/04 11:23:32;;;;;;;;;;;24.50;45.50;;;;;;455941;260;1096;-72
2021/10/04 11:25:33;;;;;;;;;;;24.50;45.10;;;;;;455751;260;2206;-72
2021/10/04 11:27:34;;;;;;;;;;;24.30;45.40;;;;;;456047;260;1409;-72
2021/10/04 11:29:36;;;;;;;;;;;24.50;45.50;;;;;;455820;260;1106;-72
2021/10/04 11:31:39;;;;;;;;;;;24.40;46.10;;;;;;455627;261;1168;-72
2021/10/04 11:33:39;;;;;;;;;;;24.10;45.70;;;;;;455900;260;1318;-72
2021/10/04 11:35:40;;;;;;;;;;;24.40;45.50;;;;;;455832;261;1334;-72
2021/10/04 11:37:41;;;;;;;;;;;24.40;45.80;;;;;;455921;260;1243;-72
2021/10/04 11:39:42;;;;;;;;;;;24.60;45.10;;;;;;455647;261;1055;-72
2021/10/04 11:41:44;;;;;;;;;;;24.50;45.30;;;;;;455872;260;1160;-72
2021/10/04 11:43:45;;;;;;;;;;;24.80;45.10;;;;;;455844;260;1186;-72
2021/10/04 11:45:46;;;;;;;;;;;24.10;45.20;;;;;;455718;260;2198;-72
2021/10/04 11:47:47;;;;;;;;;;;24.40;45.40;;;;;;455657;261;1099;-72
2021/10/04 11:49:50;;;;;;;;;;;24.20;46.20;;;;;;455715;259;989;-72
2021/10/04 11:51:51;;;;;;;;;;;24.00;45.90;;;;;;455680;258;1500;-72
2021/10/04 11:53:52;;;;;;;;;;;24.40;45.70;;;;;;455872;260;1155;-72
2021/10/04 11:55:53;;;;;;;;;;;24.00;46.50;;;;;;455670;261;1198;-72
2021/10/04 11:57:54;;;;;;;;;;;24.50;45.50;;;;;;455830;260;1349;-72